Time;durP1;ratioP1;P1;durP2;ratioP2;P2;SDS_P1;SDS_P2;PMS_P1;PMS_P2;Temp;Humidity;BMP_temperature;BMP_pressure;BME280_temperature;BME280_humidity;BME280_pressure;Samples;Min_cycle;Max_cycle;Signal;HPM_P1;HPM_P2
2023/02/26 00:03:58;;;;;;;4.05;2.17;;;;;;;3.77;47.62;99880.47;10361690;28;20049;-54
2023/02/26 00:09:00;;;;;;;5.20;1.65;;;;;;;3.74;47.81;99885.91;10359801;28;20060;-56
2023/02/26 00:14:03;;;;;;;3.55;1.90;;;;;;;3.77;47.67;99891.00;10370923;28;20056;-56
2023/02/26 00:19:07;;;;;;;2.85;1.83;;;;;;;3.74;47.72;99899.06;10369892;28;20520;-56
2023/02/26 00:24:08;;;;;;;3.83;2.05;;;;;;;3.75;47.85;99900.75;10368658;28;20143;-56
2023/02/26 00:29:10;;;;;;;3.08;1.50;;;;;;;3.72;47.75;99903.56;10363152;28;20053;-56
2023/02/26 00:34:12;;;;;;;3.47;1.80;;;;;;;3.58;47.99;99895.63;10363471;28;20068;-56
2023/02/26 00:39:32;;;;;;;6.38;1.77;;;;;;;3.53;48.13;99886.19;10354806;28;20640;-56
2023/02/26 00:44:34;;;;;;;2.13;1.75;;;;;;;3.55;48.47;99899.28;10365088;28;20461;-56
2023/02/26 00:49:51;;;;;;;6.05;2.70;;;;;;;3.70;48.61;99900.19;10366379;28;20053;-56
2023/02/26 00:54:52;;;;;;;2.28;1.20;;;;;;;3.76;48.67;99906.88;10378714;28;20701;-56
2023/02/26 00:59:54;;;;;;;5.28;2.17;;;;;;;3.77;48.39;99912.06;10354568;28;20041;-54
2023/02/26 01:04:56;;;;;;;2.63;2.03;;;;;;;3.69;48.97;99920.41;10358870;28;20223;-54
2023/02/26 01:09:58;;;;;;;2.35;1.45;;;;;;;3.65;49.13;99899.63;10324622;28;20168;-54
2023/02/26 01:14:59;;;;;;;4.38;1.73;;;;;;;3.63;48.79;99904.09;10323542;28;20164;-56
2023/02/26 01:20:09;;;;;;;3.08;1.90;;;;;;;3.77;49.25;99914.69;10319023;28;20048;-55
2023/02/26 01:25:15;;;;;;;3.72;1.80;;;;;;;3.65;49.29;99908.34;10317774;28;20061;-54
2023/02/26 01:30:17;;;;;;;3.42;1.85;;;;;;;3.68;49.32;99915.22;10319012;28;20050;-54
2023/02/26 01:35:38;;;;;;;2.92;1.60;;;;;;;3.71;49.60;99928.22;10317240;28;20124;-54
2023/02/26 01:40:58;;;;;;;4.10;1.50;;;;;;;3.77;49.88;99935.75;10352779;28;20052;-54
2023/02/26 01:46:10;;;;;;;3.33;1.58;;;;;;;3.70;50.00;99927.34;10369823;28;20183;-54
2023/02/26 01:51:12;;;;;;;4.18;1.42;;;;;;;3.48;51.14;99942.66;10360731;28;20114;-54
2023/02/26 01:56:16;;;;;;;3.97;1.30;;;;;;;3.36;51.63;99936.28;10357013;28;20481;-54
2023/02/26 02:01:18;;;;;;;5.47;1.20;;;;;;;3.37;52.14;99951.16;10354339;28;20821;-55
2023/02/26 02:06:23;;;;;;;3.22;1.33;;;;;;;3.18;52.28;99941.66;10319219;28;20810;-54
2023/02/26 02:11:26;;;;;;;2.67;1.10;;;;;;;3.26;53.08;99959.66;10317632;28;20062;-55
2023/02/26 02:16:46;;;;;;;2.13;1.50;;;;;;;3.23;53.69;99958.94;10319638;28;20184;-57
2023/02/26 02:22:13;;;;;;;2.65;1.20;;;;;;;3.24;54.92;99969.38;10314678;28;20057;-54
2023/02/26 02:27:40;;;;;;;3.28;1.20;;;;;;;3.18;55.04;99970.59;10356284;28;20049;-59
2023/02/26 02:32:50;;;;;;;2.92;1.67;;;;;;;3.17;55.17;99976.78;10356710;28;20053;-55
2023/02/26 02:37:59;;;;;;;2.00;1.08;;;;;;;3.19;54.82;99985.41;10357421;28;20140;-54
2023/02/26 02:43:05;;;;;;;2.60;0.90;;;;;;;3.11;54.72;99987.63;10357189;28;20049;-55
2023/02/26 02:48:13;;;;;;;2.90;0.65;;;;;;;3.02;54.17;99988.13;10357767;28;20045;-56
2023/02/26 02:53:21;;;;;;;2.88;0.57;;;;;;;2.89;54.19;99977.41;10360157;28;20797;-54
2023/02/26 02:58:30;;;;;;;1.05;0.50;;;;;;;2.86;54.60;99995.97;10360200;28;20147;-56
2023/02/26 03:03:53;;;;;;;1.58;0.50;;;;;;;2.79;55.04;99998.09;10354083;28;20049;-54
2023/02/26 03:08:57;;;;;;;1.52;0.70;;;;;;;2.64;55.75;99989.22;10315995;28;20061;-55
2023/02/26 03:13:58;;;;;;;1.40;0.88;;;;;;;2.64;56.77;99996.22;10348121;28;20118;-54
2023/02/26 03:19:18;;;;;;;2.42;1.30;;;;;;;2.57;57.10;100010.63;10361019;28;20052;-54
2023/02/26 03:24:34;;;;;;;2.92;1.38;;;;;;;2.40;57.87;99999.22;10362058;28;20583;-54
2023/02/26 03:29:45;;;;;;;3.80;1.60;;;;;;;2.50;57.94;100027.63;10356014;28;20045;-54
2023/02/26 03:35:15;;;;;;;2.05;0.90;;;;;;;2.32;58.34;99996.09;10355887;28;20053;-58
2023/02/26 03:40:53;;;;;;;1.73;1.00;;;;;;;2.52;58.42;100015.25;10357105;28;20052;-54
2023/02/26 03:45:59;;;;;;;2.47;1.60;;;;;;;2.40;58.64;100033.34;10359382;28;20246;-54
2023/02/26 03:51:06;;;;;;;2.63;1.45;;;;;;;2.35;59.35;100048.47;10344320;28;20131;-54
2023/02/26 03:56:29;;;;;;;3.65;1.83;;;;;;;2.35;58.96;100059.00;10356738;28;20053;-58
2023/02/26 04:01:50;;;;;;;2.72;1.40;;;;;;;2.25;58.81;100055.97;10372758;28;20109;-54
2023/02/26 04:06:55;;;;;;;3.45;1.70;;;;;;;2.34;58.93;100070.41;10365444;28;20088;-54
2023/02/26 04:11:57;;;;;;;2.28;1.63;;;;;;;2.25;59.40;100069.13;10364686;28;20464;-54
2023/02/26 04:16:59;;;;;;;3.63;1.50;;;;;;;2.24;59.60;100077.91;10363819;28;20865;-55
2023/02/26 04:22:00;;;;;;;3.50;1.70;;;;;;;2.21;59.64;100082.47;10366126;28;20051;-54
2023/02/26 04:27:02;;;;;;;2.58;2.08;;;;;;;2.10;59.71;100068.09;10362170;28;20042;-55
2023/02/26 04:32:04;;;;;;;2.55;1.73;;;;;;;2.19;59.83;100079.06;10364582;28;20677;-54
2023/02/26 04:37:08;;;;;;;2.95;2.00;;;;;;;2.07;60.29;100089.25;10364073;28;20072;-55
2023/02/26 04:42:09;;;;;;;3.22;2.00;;;;;;;2.11;59.92;100105.69;10356492;28;20053;-54
2023/02/26 04:47:11;;;;;;;3.30;1.90;;;;;;;2.00;60.11;100086.94;10324211;28;20092;-55
2023/02/26 04:52:12;;;;;;;4.35;2.03;;;;;;;1.99;60.04;100096.63;10334268;28;20777;-54
2023/02/26 04:57:14;;;;;;;2.47;1.67;;;;;;;1.84;59.86;100092.09;10363152;28;20054;-54
2023/02/26 05:02:16;;;;;;;3.40;2.03;;;;;;;1.83;59.78;100100.88;10370973;28;20313;-54
2023/02/26 05:07:17;;;;;;;4.03;1.88;;;;;;;1.88;59.72;100107.63;10360359;28;20056;-54
2023/02/26 05:12:19;;;;;;;4.38;1.95;;;;;;;1.88;60.01;100117.28;10363532;28;20115;-54
2023/02/26 05:17:20;;;;;;;4.55;2.15;;;;;;;1.93;59.27;100117.91;10350113;28;20052;-54
2023/02/26 05:22:22;;;;;;;4.13;1.90;;;;;;;1.87;59.55;100133.94;10360862;28;20049;-54
2023/02/26 05:27:23;;;;;;;3.22;1.60;;;;;;;1.74;59.53;100139.78;10358119;28;20707;-54
2023/02/26 05:32:25;;;;;;;4.45;2.53;;;;;;;1.79;59.10;100151.81;10355800;28;20052;-54
2023/02/26 05:37:27;;;;;;;2.80;1.60;;;;;;;1.77;58.98;100152.75;10362089;28;20049;-54
2023/02/26 05:42:28;;;;;;;2.85;1.80;;;;;;;1.74;58.89;100155.50;10360074;28;20680;-54
2023/02/26 05:47:34;;;;;;;5.20;2.45;;;;;;;1.64;59.14;100156.84;10356727;28;20049;-57
2023/02/26 05:52:35;;;;;;;4.45;1.52;;;;;;;1.68;59.06;100161.03;10369902;28;20128;-55
2023/02/26 05:57:37;;;;;;;2.35;1.55;;;;;;;1.75;58.43;100157.19;10366124;28;20052;-54
2023/02/26 06:02:40;;;;;;;4.22;1.45;;;;;;;1.81;58.21;100173.59;10359474;28;20556;-55
2023/02/26 06:07:41;;;;;;;3.60;1.50;;;;;;;1.85;57.92;100193.56;10357398;28;20054;-59
2023/02/26 06:12:43;;;;;;;4.82;2.17;;;;;;;1.80;58.22;100191.09;10360702;28;20132;-55
2023/02/26 06:17:44;;;;;;;4.18;1.90;;;;;;;1.69;58.41;100196.00;10360553;28;20053;-55
2023/02/26 06:22:46;;;;;;;3.95;1.80;;;;;;;1.57;58.54;100200.03;10348403;28;20053;-54
2023/02/26 06:27:47;;;;;;;4.38;1.70;;;;;;;1.56;58.13;100200.94;10354768;28;20537;-56
2023/02/26 06:32:48;;;;;;;4.15;1.75;;;;;;;1.62;58.34;100219.03;10357770;28;20081;-56
2023/02/26 06:37:50;;;;;;;3.35;1.70;;;;;;;1.62;58.33;100229.53;10353930;28;20739;-54
2023/02/26 06:42:52;;;;;;;2.80;1.60;;;;;;;1.64;58.01;100248.69;10329838;28;20140;-55
2023/02/26 06:47:54;;;;;;;4.25;1.55;;;;;;;1.54;57.88;100244.75;10329886;28;20045;-56
2023/02/26 06:52:56;;;;;;;3.30;1.92;;;;;;;1.65;57.97;100250.41;10330231;28;20160;-56
2023/02/26 06:57:58;;;;;;;2.65;1.73;;;;;;;1.65;58.11;100271.41;10349303;28;20058;-54
2023/02/26 07:03:01;;;;;;;3.75;1.98;;;;;;;1.69;57.93;100266.84;10332349;28;20057;-54
2023/02/26 07:08:04;;;;;;;3.10;1.77;;;;;;;1.80;57.70;100274.25;10331318;28;20069;-55
2023/02/26 07:13:06;;;;;;;3.33;1.60;;;;;;;1.73;57.70;100271.06;10327684;28;20053;-54
2023/02/26 07:18:07;;;;;;;5.22;1.67;;;;;;;1.80;57.18;100284.75;10327336;28;20617;-56
2023/02/26 07:23:10;;;;;;;4.68;2.10;;;;;;;1.94;57.24;100308.66;10329440;28;20064;-54
2023/02/26 07:28:12;;;;;;;2.28;1.13;;;;;;;2.15;56.94;100316.47;10332935;28;20057;-54
2023/02/26 07:33:13;;;;;;;2.75;1.65;;;;;;;2.24;56.62;100323.97;10322872;28;20049;-54
2023/02/26 07:38:15;;;;;;;2.70;1.60;;;;;;;2.24;56.29;100316.94;10319394;28;20053;-53
2023/02/26 07:43:19;;;;;;;2.20;1.53;;;;;;;2.43;55.68;100343.25;10315737;28;20068;-53
2023/02/26 07:48:21;;;;;;;2.67;1.52;;;;;;;2.60;55.51;100347.72;10309793;28;20056;-55
2023/02/26 07:53:23;;;;;;;1.95;1.38;;;;;;;2.85;54.45;100343.94;10326077;28;20046;-55
2023/02/26 07:58:25;;;;;;;3.20;1.60;;;;;;;3.21;53.86;100371.19;10319731;28;20639;-55
2023/02/26 08:03:26;;;;;;;2.25;1.38;;;;;;;3.22;52.75;100362.38;10318052;28;20581;-55
2023/02/26 08:08:28;;;;;;;3.10;1.60;;;;;;;3.24;52.53;100360.53;10317309;28;20076;-55
2023/02/26 08:13:30;;;;;;;2.22;1.48;;;;;;;3.22;52.24;100363.22;10317635;28;20386;-60
2023/02/26 08:18:32;;;;;;;4.68;1.95;;;;;;;3.52;51.42;100378.47;10315276;28;20167;-57
2023/02/26 08:23:35;;;;;;;2.85;1.63;;;;;;;3.65;51.04;100378.72;10323770;28;20050;-55
2023/02/26 08:28:37;;;;;;;2.60;1.45;;;;;;;3.68;50.29;100376.78;10310170;28;20060;-55
2023/02/26 08:33:38;;;;;;;4.07;1.75;;;;;;;3.74;50.27;100374.75;10322486;28;20050;-56
2023/02/26 08:38:40;;;;;;;5.15;3.05;;;;;;;3.80;50.04;100400.78;10327671;28;20057;-55
2023/02/26 08:43:41;;;;;;;2.92;1.60;;;;;;;3.74;49.98;100407.22;10325816;28;20608;-56
2023/02/26 08:48:43;;;;;;;2.28;1.50;;;;;;;3.88;49.72;100425.81;10329582;28;20126;-55
2023/02/26 08:53:46;;;;;;;2.03;1.27;;;;;;;4.14;49.43;100415.72;10323037;28;20578;-56
2023/02/26 08:58:48;;;;;;;2.25;1.30;;;;;;;4.43;48.46;100434.47;10327510;28;20058;-55
2023/02/26 09:03:50;;;;;;;3.28;1.80;;;;;;;4.58;48.55;100446.84;10329811;28;20168;-54
2023/02/26 09:08:51;;;;;;;2.13;1.60;;;;;;;4.83;47.16;100453.44;10329705;28;20099;-57
2023/02/26 09:13:52;;;;;;;2.67;1.67;;;;;;;5.10;46.50;100452.91;10330930;28;20058;-54
2023/02/26 09:18:54;;;;;;;2.88;1.80;;;;;;;5.43;45.38;100454.63;10327681;28;20983;-54
2023/02/26 09:23:59;;;;;;;2.35;1.55;;;;;;;5.64;45.14;100465.75;10322047;28;20093;-55
2023/02/26 09:29:01;;;;;;;2.33;1.10;;;;;;;5.75;44.62;100471.31;10312581;28;21341;-55
2023/02/26 09:34:03;;;;;;;3.47;1.40;;;;;;;5.63;44.62;100472.84;10323173;28;20064;-59
2023/02/26 09:39:05;;;;;;;2.70;1.52;;;;;;;5.85;44.08;100476.91;10344297;28;20057;-55
2023/02/26 09:44:18;;;;;;;3.60;1.10;;;;;;;6.29;43.21;100475.28;10318383;28;20148;-59
2023/02/26 09:49:25;;;;;;;3.25;1.75;;;;;;;6.16;43.06;100475.16;10325312;28;20341;-56
2023/02/26 09:54:30;;;;;;;1.25;0.88;;;;;;;6.01;43.19;100453.13;10320328;28;20046;-55
2023/02/26 09:59:33;;;;;;;3.67;1.60;;;;;;;6.76;42.77;100478.69;10324588;28;20053;-55
2023/02/26 10:05:12;;;;;;;2.28;1.10;;;;;;;7.79;40.45;100488.94;10333665;28;20554;-55
2023/02/26 10:10:20;;;;;;;1.70;0.88;;;;;;;7.50;39.57;100485.50;10324286;28;21060;-55
2023/02/26 10:15:34;;;;;;;2.70;1.23;;;;;;;8.43;38.49;100490.91;10328832;28;20049;-56
2023/02/26 10:20:45;;;;;;;3.15;0.90;;;;;;;10.57;34.22;100498.66;10325899;28;20114;-57
2023/02/26 10:25:52;;;;;;;2.25;0.90;;;;;;;10.57;33.96;100501.31;10322536;28;20159;-56
2023/02/26 10:31:02;;;;;;;3.45;1.15;;;;;;;11.10;32.95;100502.59;10325631;28;20654;-55
2023/02/26 10:36:21;;;;;;;1.60;0.60;;;;;;;11.44;32.70;100500.78;10316144;28;20056;-55
2023/02/26 10:41:27;;;;;;;1.58;0.57;;;;;;;10.50;33.30;100507.25;10322628;28;20063;-54
2023/02/26 10:46:38;;;;;;;1.33;0.75;;;;;;;9.23;35.26;100516.41;10320226;28;20062;-56
2023/02/26 10:51:39;;;;;;;0.82;0.60;;;;;;;9.81;34.47;100511.38;10316235;28;20513;-56
2023/02/26 10:56:41;;;;;;;2.28;0.93;;;;;;;8.97;35.79;100519.09;10315751;28;20053;-56
2023/02/26 11:01:44;;;;;;;1.17;0.63;;;;;;;8.24;36.77;100535.53;10325898;28;20055;-55
2023/02/26 11:06:54;;;;;;;2.75;0.70;;;;;;;7.82;38.05;100548.84;10322984;28;20499;-55
2023/02/26 11:12:04;;;;;;;1.25;0.60;;;;;;;7.49;38.02;100551.81;10339281;28;20059;-55
2023/02/26 11:17:32;;;;;;;1.25;0.50;;;;;;;7.91;37.82;100550.91;10319169;28;20794;-55
2023/02/26 11:22:38;;;;;;;1.40;0.60;;;;;;;8.11;37.46;100546.94;10317590;28;20502;-57
2023/02/26 11:27:42;;;;;;;1.05;0.32;;;;;;;10.28;33.25;100546.06;10322459;28;20053;-57
2023/02/26 11:32:48;;;;;;;1.35;0.65;;;;;;;10.16;33.42;100531.03;10321263;28;21551;-55
2023/02/26 11:37:56;;;;;;;1.02;0.30;;;;;;;8.91;34.02;100542.59;10312435;28;20168;-57
2023/02/26 11:43:02;;;;;;;0.85;0.30;;;;;;;8.02;35.10;100544.06;10322807;28;20068;-55
2023/02/26 11:48:09;;;;;;;0.93;0.40;;;;;;;7.79;35.99;100544.59;10311964;28;20054;-55
2023/02/26 11:53:23;;;;;;;2.40;0.43;;;;;;;7.79;35.30;100534.00;10323932;28;20609;-55
2023/02/26 11:58:28;;;;;;;0.90;0.50;;;;;;;7.49;35.85;100531.50;10315836;28;20980;-56
2023/02/26 12:03:39;;;;;;;1.52;0.60;;;;;;;7.08;36.99;100516.38;10324162;28;20595;-56
2023/02/26 12:08:41;;;;;;;1.15;0.70;;;;;;;7.10;36.80;100529.53;10326574;28;20057;-55
2023/02/26 12:14:04;;;;;;;0.65;0.38;;;;;;;6.95;36.87;100528.66;10335195;28;20049;-55
2023/02/26 12:19:41;;;;;;;1.05;0.50;;;;;;;6.72;38.26;100534.44;10318856;28;20049;-54
2023/02/26 12:24:51;;;;;;;0.40;0.30;;;;;;;6.57;38.12;100531.84;10328283;28;20122;-54
2023/02/26 12:30:28;;;;;;;1.50;0.70;;;;;;;6.58;38.72;100533.56;10327172;28;20057;-59
2023/02/26 12:35:58;;;;;;;1.00;0.70;;;;;;;6.77;37.99;100535.94;10327298;28;20041;-55
2023/02/26 12:41:19;;;;;;;1.73;0.50;;;;;;;7.06;37.45;100537.66;10327986;28;21384;-57
2023/02/26 12:46:39;;;;;;;1.50;0.70;;;;;;;8.61;34.70;100541.06;10330019;28;20578;-55
2023/02/26 12:52:03;;;;;;;2.08;0.57;;;;;;;7.69;36.54;100532.03;10320296;28;20052;-55
2023/02/26 12:57:16;;;;;;;1.48;0.60;;;;;;;7.22;37.06;100549.94;10321013;28;20819;-57
2023/02/26 13:02:33;;;;;;;2.10;0.40;;;;;;;6.87;37.48;100550.31;10334025;28;20175;-58
2023/02/26 13:08:05;;;;;;;1.83;0.52;;;;;;;7.45;37.40;100559.13;10329136;28;20049;-58
2023/02/26 13:13:29;;;;;;;1.15;0.93;;;;;;;7.81;36.74;100554.22;10329245;28;20053;-58
2023/02/26 13:18:41;;;;;;;1.77;0.85;;;;;;;9.91;33.73;100565.59;10334004;28;20057;-58
2023/02/26 13:23:49;;;;;;;1.13;0.47;;;;;;;12.36;29.18;100559.13;10323296;28;20041;-59
2023/02/26 13:29:17;;;;;;;3.00;0.50;;;;;;;9.65;32.64;100556.00;10320726;28;20839;-64
2023/02/26 13:34:38;;;;;;;0.77;0.43;;;;;;;8.40;34.11;100522.09;10321038;28;20045;-59
2023/02/26 13:39:48;;;;;;;1.30;0.40;;;;;;;7.83;35.82;100561.13;10327278;28;20045;-59
2023/02/26 13:45:11;;;;;;;1.95;0.63;;;;;;;6.99;36.82;100527.56;10326136;28;20061;-59
2023/02/26 13:50:22;;;;;;;1.38;0.60;;;;;;;7.17;37.10;100566.13;10337089;28;20054;-58
2023/02/26 13:55:46;;;;;;;1.15;0.52;;;;;;;7.16;36.76;100566.22;10338356;28;20044;-58
2023/02/26 14:01:15;;;;;;;0.98;0.40;;;;;;;7.03;36.23;100571.41;10325362;28;20175;-57
2023/02/26 14:06:43;;;;;;;1.48;0.52;;;;;;;13.98;27.34;100557.72;10309002;28;20062;-58
2023/02/26 14:11:58;;;;;;;0.80;0.47;;;;;;;18.91;20.10;100549.75;10321723;28;20084;-59
2023/02/26 14:17:05;;;;;;;1.63;0.30;;;;;;;21.34;17.67;100544.19;10322180;28;20059;-56
2023/02/26 14:22:13;;;;;;;0.45;0.20;;;;;;;22.95;16.25;100555.75;10333152;28;20053;-58
2023/02/26 14:27:14;;;;;;;1.70;0.98;;;;;;;18.81;19.76;100555.31;10312817;28;20052;-58
2023/02/26 14:32:27;;;;;;;0.68;0.30;;;;;;;13.89;25.42;100563.91;10323814;28;20061;-58
2023/02/26 14:37:31;;;;;;;1.40;0.75;;;;;;;16.35;23.78;100555.91;10335717;28;20056;-57
2023/02/26 14:42:42;;;;;;;1.98;0.47;;;;;;;19.48;20.51;100562.25;10340023;28;20060;-56
2023/02/26 14:47:45;;;;;;;0.85;0.30;;;;;;;21.36;18.27;100558.34;10338630;28;20041;-57
2023/02/26 14:53:22;;;;;;;1.00;0.30;;;;;;;14.55;24.12;100579.31;10317681;28;20057;-56
2023/02/26 14:58:43;;;;;;;1.00;0.50;;;;;;;13.27;26.02;100585.34;10314712;28;21948;-56
2023/02/26 15:03:59;;;;;;;1.38;0.40;;;;;;;12.86;25.54;100577.19;10327907;28;20063;-55
2023/02/26 15:09:35;;;;;;;0.40;0.30;;;;;;;11.46;28.52;100584.13;10322384;28;21420;-55
2023/02/26 15:15:06;;;;;;;1.20;0.40;;;;;;;9.85;30.75;100595.28;10320455;28;20324;-55
2023/02/26 15:20:26;;;;;;;1.58;0.52;;;;;;;9.14;31.83;100610.03;10325399;28;20069;-55
2023/02/26 15:25:34;;;;;;;3.50;1.05;;;;;;;8.73;32.66;100609.22;10322601;28;20479;-56
2023/02/26 15:30:36;;;;;;;1.58;0.60;;;;;;;8.46;32.87;100615.41;10314543;28;20049;-55
2023/02/26 15:35:38;;;;;;;1.38;0.40;;;;;;;8.17;33.47;100616.44;10321201;28;20644;-56
2023/02/26 15:40:40;;;;;;;1.10;0.32;;;;;;;7.94;34.22;100627.59;10325999;28;20057;-56
2023/02/26 15:45:47;;;;;;;1.08;0.30;;;;;;;7.51;33.93;100624.13;10324442;28;20064;-56
2023/02/26 15:50:55;;;;;;;1.85;0.40;;;;;;;7.35;34.17;100634.81;10321502;28;20505;-60
2023/02/26 15:55:59;;;;;;;1.45;0.47;;;;;;;6.95;34.21;100653.94;10319743;28;20060;-55
2023/02/26 16:01:02;;;;;;;0.60;0.40;;;;;;;6.61;34.86;100650.59;10312788;28;20612;-54
2023/02/26 16:06:10;;;;;;;0.70;0.40;;;;;;;6.61;35.34;100652.41;10317230;28;20795;-54
2023/02/26 16:11:13;;;;;;;1.42;0.40;;;;;;;6.62;35.38;100652.31;10323204;28;20069;-57
2023/02/26 16:16:28;;;;;;;1.30;0.90;;;;;;;6.61;35.65;100655.03;10335580;28;20623;-54
2023/02/26 16:21:36;;;;;;;2.40;0.90;;;;;;;6.30;36.11;100672.63;10325361;28;20050;-54
2023/02/26 16:26:48;;;;;;;1.13;0.75;;;;;;;6.20;36.43;100669.69;10332849;28;20045;-54
2023/02/26 16:31:55;;;;;;;1.25;1.05;;;;;;;6.04;36.46;100672.31;10312829;28;20068;-58
2023/02/26 16:36:57;;;;;;;1.25;0.68;;;;;;;5.71;37.64;100662.59;10325749;28;20050;-55
2023/02/26 16:42:32;;;;;;;1.40;0.68;;;;;;;5.72;37.63;100698.66;10321034;28;20137;-52
2023/02/26 16:47:36;;;;;;;1.38;0.75;;;;;;;5.65;37.67;100695.47;10322553;28;20053;-54
2023/02/26 16:52:38;;;;;;;2.10;0.65;;;;;;;5.56;38.00;100698.59;10324276;28;20057;-54
2023/02/26 16:57:43;;;;;;;1.40;0.80;;;;;;;5.43;38.22;100705.44;10344999;28;20107;-55
2023/02/26 17:02:47;;;;;;;1.45;0.70;;;;;;;5.32;38.77;100712.13;10331771;28;20049;-54
2023/02/26 17:08:04;;;;;;;0.40;0.30;;;;;;;5.30;38.72;100714.00;10339018;28;20608;-55
2023/02/26 17:13:14;;;;;;;1.42;0.90;;;;;;;5.27;38.40;100711.53;10344879;28;20493;-54
2023/02/26 17:18:16;;;;;;;1.13;0.52;;;;;;;5.22;38.75;100708.25;10333208;28;21196;-55
2023/02/26 17:23:21;;;;;;;0.88;0.43;;;;;;;5.09;39.09;100731.78;10328577;28;20514;-56
2023/02/26 17:28:26;;;;;;;1.33;0.80;;;;;;;5.09;39.54;100741.50;10328019;28;20628;-55
2023/02/26 17:33:28;;;;;;;;;;;;;;;5.08;39.78;100750.31;10328566;28;20062;-55
2023/02/26 17:38:32;;;;;;;2.05;0.98;;;;;;;5.07;39.82;100764.44;10330842;28;20012;-56
2023/02/26 17:43:34;;;;;;;2.50;0.73;;;;;;;5.04;39.93;100767.22;10327864;28;20156;-56
2023/02/26 17:48:36;;;;;;;1.15;0.50;;;;;;;5.00;39.68;100778.84;10328392;28;20061;-55
2023/02/26 17:53:42;;;;;;;1.08;0.43;;;;;;;4.98;39.23;100781.56;10327825;28;20050;-55
2023/02/26 17:58:44;;;;;;;1.05;0.32;;;;;;;4.95;39.39;100798.44;10319225;28;20148;-56
2023/02/26 18:03:46;;;;;;;2.30;0.70;;;;;;;4.92;39.19;100798.59;10316223;28;20895;-57
2023/02/26 18:08:48;;;;;;;0.65;0.40;;;;;;;4.78;39.45;100786.03;10332219;28;20700;-56
2023/02/26 18:13:49;;;;;;;0.85;0.40;;;;;;;4.82;39.76;100802.59;10330626;28;20056;-56
2023/02/26 18:18:51;;;;;;;2.10;1.13;;;;;;;4.85;39.64;100802.44;10324494;28;20855;-56
2023/02/26 18:23:55;;;;;;;2.03;0.80;;;;;;;4.95;39.73;100814.25;10327293;28;20536;-55
2023/02/26 18:28:58;;;;;;;2.72;0.90;;;;;;;4.95;39.53;100814.25;10272083;28;20049;-54
2023/02/26 18:34:00;;;;;;;1.10;0.63;;;;;;;4.83;39.64;100806.06;10309644;28;20052;-55
2023/02/26 18:39:07;;;;;;;3.88;3.17;;;;;;;4.80;40.01;100804.41;10323160;28;20148;-58
2023/02/26 18:44:08;;;;;;;3.10;2.30;;;;;;;4.84;39.93;100816.53;10338127;28;20057;-55
2023/02/26 18:49:17;;;;;;;1.65;1.40;;;;;;;4.68;40.45;100799.72;10320556;28;20060;-56
2023/02/26 18:54:18;;;;;;;5.13;2.80;;;;;;;4.74;40.56;100825.81;10320269;28;20053;-55
2023/02/26 18:59:20;;;;;;;2.55;1.75;;;;;;;4.69;40.72;100819.91;10325235;28;22146;-55
2023/02/26 19:04:22;;;;;;;1.88;1.23;;;;;;;4.57;40.47;100814.28;10318519;28;20053;-55
2023/02/26 19:09:25;;;;;;;1.75;0.60;;;;;;;4.66;40.25;100847.28;10323325;28;20053;-55
2023/02/26 19:14:27;;;;;;;1.23;0.68;;;;;;;4.58;40.51;100837.09;10320473;28;20048;-55
2023/02/26 19:19:28;;;;;;;2.08;1.00;;;;;;;4.67;40.54;100854.28;10330642;28;20049;-54
2023/02/26 19:24:30;;;;;;;1.30;1.10;;;;;;;4.56;40.48;100838.94;10338176;28;20081;-55
2023/02/26 19:29:32;;;;;;;2.97;0.90;;;;;;;4.57;40.95;100859.09;10322368;28;20064;-56
2023/02/26 19:34:34;;;;;;;2.67;1.05;;;;;;;4.50;41.20;100844.47;10323500;28;20053;-56
2023/02/26 19:39:36;;;;;;;2.45;1.08;;;;;;;4.48;41.72;100863.94;10328329;28;20848;-55
2023/02/26 19:44:39;;;;;;;1.98;1.10;;;;;;;4.47;41.91;100892.06;10326377;28;20756;-57
2023/02/26 19:49:41;;;;;;;4.15;1.17;;;;;;;4.31;41.60;100867.31;10322941;28;20053;-55
2023/02/26 19:54:42;;;;;;;1.20;0.80;;;;;;;4.33;42.40;100894.50;10321214;28;20703;-56
2023/02/26 19:59:46;;;;;;;1.73;1.20;;;;;;;4.16;43.10;100860.94;10323479;28;20058;-58
2023/02/26 20:04:48;;;;;;;3.03;1.05;;;;;;;4.21;42.38;100895.88;10320307;28;20057;-56
2023/02/26 20:09:49;;;;;;;1.58;1.27;;;;;;;4.11;42.25;100905.09;10320090;28;20041;-56
2023/02/26 20:14:51;;;;;;;1.58;1.00;;;;;;;3.90;42.42;100902.44;10330301;28;20045;-61
2023/02/26 20:19:53;;;;;;;2.85;1.48;;;;;;;3.83;43.04;100915.03;10320929;28;20042;-57
2023/02/26 20:24:55;;;;;;;1.75;1.17;;;;;;;3.68;43.45;100919.16;10319097;28;20084;-57
2023/02/26 20:29:57;;;;;;;2.58;1.25;;;;;;;3.60;44.08;100925.66;10335991;28;20103;-56
2023/02/26 20:34:58;;;;;;;3.60;1.30;;;;;;;3.54;43.92;100932.91;10332154;28;20081;-55
2023/02/26 20:40:00;;;;;;;1.80;1.45;;;;;;;3.46;44.33;100932.34;10328749;28;20107;-55
2023/02/26 20:45:02;;;;;;;3.47;1.27;;;;;;;3.35;44.66;100932.75;10327515;28;21579;-56
2023/02/26 20:50:04;;;;;;;4.22;1.38;;;;;;;3.17;44.85;100923.81;10324269;28;20065;-55
2023/02/26 20:55:06;;;;;;;2.00;1.48;;;;;;;3.14;44.60;100934.47;10317816;28;21160;-54
2023/02/26 21:00:10;;;;;;;3.75;1.67;;;;;;;3.23;45.21;100945.53;10330653;28;20103;-54
2023/02/26 21:05:12;;;;;;;2.80;2.00;;;;;;;3.10;45.15;100932.00;10336548;28;20996;-54
2023/02/26 21:10:16;;;;;;;3.50;1.90;;;;;;;3.12;44.94;100954.72;10336645;28;20076;-54
2023/02/26 21:15:17;;;;;;;2.30;1.58;;;;;;;3.12;45.25;100961.75;10364321;28;20155;-54
2023/02/26 21:20:21;;;;;;;2.40;1.38;;;;;;;3.03;45.40;100947.16;10354607;28;20063;-54
2023/02/26 21:25:22;;;;;;;3.28;1.50;;;;;;;2.95;45.75;100943.97;10361053;28;20067;-56
2023/02/26 21:30:24;;;;;;;3.78;2.33;;;;;;;2.90;46.00;100945.91;10360810;28;20061;-56
2023/02/26 21:35:27;;;;;;;2.63;1.83;;;;;;;2.88;45.92;100958.25;10361439;28;20056;-54
2023/02/26 21:40:30;;;;;;;2.97;1.52;;;;;;;2.82;46.06;100949.69;10364496;28;20668;-56
2023/02/26 21:45:34;;;;;;;3.30;1.63;;;;;;;2.86;46.16;100960.09;10357898;28;20142;-54
2023/02/26 21:50:36;;;;;;;1.83;1.20;;;;;;;2.73;46.00;100950.03;10357900;28;20088;-55
2023/02/26 21:55:38;;;;;;;1.88;1.27;;;;;;;2.70;46.62;100958.00;10360102;28;20049;-55
2023/02/26 22:00:39;;;;;;;1.83;1.25;;;;;;;2.69;46.56;100968.59;10359093;28;20156;-54
2023/02/26 22:05:41;;;;;;;8.02;4.65;;;;;;;2.50;46.53;100947.38;10358822;28;20049;-53
2023/02/26 22:10:44;;;;;;;3.25;1.15;;;;;;;2.32;46.90;100922.63;10342987;28;20057;-54
2023/02/26 22:15:45;;;;;;;2.50;1.33;;;;;;;2.53;46.80;100961.25;10353818;28;20654;-54
2023/02/26 22:20:47;;;;;;;2.38;1.00;;;;;;;2.48;47.04;100969.31;10357494;28;20059;-56
2023/02/26 22:25:48;;;;;;;2.67;1.48;;;;;;;2.47;46.91;100964.09;10354163;28;20056;-54
2023/02/26 22:30:50;;;;;;;1.55;1.10;;;;;;;2.40;47.15;100957.34;10362234;28;20116;-54
2023/02/26 22:35:56;;;;;;;2.03;1.27;;;;;;;2.37;47.27;100955.72;10361025;28;20168;-56
2023/02/26 22:40:58;;;;;;;1.80;1.20;;;;;;;2.28;47.35;100962.13;10350340;28;20049;-55
2023/02/26 22:45:59;;;;;;;2.67;2.08;;;;;;;2.33;47.36;100959.34;10361202;28;20060;-54
2023/02/26 22:51:01;;;;;;;2.55;1.42;;;;;;;2.14;47.84;100939.88;10360039;28;20068;-55
2023/02/26 22:56:02;;;;;;;3.33;1.58;;;;;;;2.21;47.79;100965.03;10353545;28;20049;-55
2023/02/26 23:01:06;;;;;;;3.08;2.13;;;;;;;2.14;48.13;100961.75;10355994;28;20045;-55
2023/02/26 23:06:08;;;;;;;2.30;1.50;;;;;;;2.13;48.28;100965.28;10353966;28;20049;-56
2023/02/26 23:11:09;;;;;;;3.17;1.63;;;;;;;2.14;48.32;100971.41;10354873;28;20045;-54
2023/02/26 23:16:11;;;;;;;1.65;1.00;;;;;;;2.06;48.18;100975.13;10352947;28;20045;-54
2023/02/26 23:21:13;;;;;;;2.78;1.30;;;;;;;2.04;48.27;100981.34;10356115;28;20968;-56
2023/02/26 23:26:15;;;;;;;2.75;1.60;;;;;;;2.00;48.31;100979.72;10353005;28;20049;-59
2023/02/26 23:31:16;;;;;;;2.95;1.50;;;;;;;1.94;48.58;100970.31;10351543;28;20045;-55
2023/02/26 23:36:18;;;;;;;3.45;1.45;;;;;;;1.97;48.34;100982.44;10352186;28;20056;-56
2023/02/26 23:41:19;;;;;;;3.55;1.73;;;;;;;1.90;49.06;100985.28;10353170;28;20494;-55
2023/02/26 23:46:21;;;;;;;1.88;1.35;;;;;;;1.88;48.91;100986.25;10342092;28;20057;-55
2023/02/26 23:51:23;;;;;;;4.32;1.33;;;;;;;1.85;48.87;100983.75;10353793;28;20130;-56